Terminal Aerodrome Forecast
Issued by NWS Mt. Holly, NJ

Home | Current Version | Previous Version | Text Only | Print | Product List | Glossary On
Versions: 1 2 3 4 5 6 7 8 9 10 11 12 13 14 15 16 17 18 19
000
FTUS41 KPHI 281722
TAFTTN
TAF
KTTN 281722Z 2818/2918 12008KT P6SM SCT025
     FM282000 08008KT P6SM BKN025 OVC040
     FM282200 08005KT 5SM -SHRA OVC025
      TEMPO 2822/2902 3SM -TSRA BKN015CB
     FM290200 VRB04KT 3SM SHRA BR BKN015 OVC025
      TEMPO 2902/2905 2SM +TSRA BKN008CB
     FM290500 06008KT 2SM +RA BR OVC008
     FM291100 03010KT 5SM -SHRA BR OVC015
     FM291600 03012KT P6SM SCT015 OVC025=

USA.gov is the U.S. government's official web portal to all federal, state and local government web resources and services.